AirNav   Pilot Hours Calculator
 
 471 users online  

19NC Double S Airport
Red Oak, North Carolina, USA

GOING TO RED OAK?


FAA INFORMATION EFFECTIVE 03 NOVEMBER 2022

Location

FAA Identifier: 19NC
Lat/Long: 36-03-53.5490N 077-55-22.9400W
36-03.892483N 077-55.382333W
36.0648747,-77.9230389
(estimated)
Elevation: 195 ft. / 59 m (estimated)
Variation: 08W (1990)
From city: 2 miles NW of RED OAK, NC
Time zone: UTC -5 (UTC -4 during Daylight Saving Time)
Zip code: 27856

Airport Operations

Airport use: Private use. Permission required prior to landing
Activation date: 03/1994
Control tower: no
ARTCC: WASHINGTON CENTER
FSS: RALEIGH FLIGHT SERVICE STATION
Attendance: UNATNDD
Wind indicator: yes
Segmented circle: no

Airport Communications

WX ASOS at RWI (13 nm S): 118.875 (252-446-0732)
WX AWOS-3P at ETC (20 nm SE): 119.575 (252-641-1640)
WX AWOS-3 at LHZ (20 nm W): 118.325 (919-497-0810)

Nearby radio navigation aids

VOR radial/distance  VOR name  Freq  Var
TYIr301/11.9TAR RIVER VORTAC117.8005W

 
NDB name  Hdg/Dist  Freq  Var  ID
ALWOOD318/34.323009WAQE .- --.- .
HUNTSBORO122/36.527109WHXO .... -..- ---

Airport Services

Runway Information

Runway 17/35

Dimensions: 2400 x 100 ft. / 732 x 30 m
Surface: turf
RUNWAY 17  RUNWAY 35
Traffic pattern: leftleft

Airport Ownership and Management from official FAA records

Ownership: Privately-owned
Owner: V. ROGER SHANKS
10155 RED OAK BLVD
NASHVILLE, NC 27856
Phone 252-937-4201
ROBERT SCHELLENBERG - JOINT OWNER/MANAGER
Manager: ROBERT SCHELLENBERG
10177 RED OAK BLVD.
NASHVILLE, NC 27856
Phone 252-904-1327

Airport Operational Statistics

Aircraft based on the field: 3
Single engine airplanes: 3
    

Additional Remarks

FOR CD CTC WASHINGTON ARTCC AT 703-771-3587.
MARKER BALLS ON LINE RWY 35 APPROACH

Instrument Procedures

There are no published instrument procedures at 19NC.

Some nearby airports with instrument procedures:

KRWI - Rocky Mount/Wilson Regional Airport (13 nm S)
W03 - Wilson Industrial Air Center Airport (18 nm S)
KETC - Tarboro-Edgecombe Airport (20 nm SE)
KLHZ - Triangle North Executive Airport (20 nm W)
KIXA - Halifax/Northampton Regional Airport (21 nm NE)
 
Loc | Ops | Rwys | IFR | FBO | Links
Com | Nav | Svcs | Stats | Notes
Area around 19NC (Double S Airport)
 
Road maps at: MapQuest Bing Google
 
Aerial photo
WARNING: Photo may not be current or correct
Aerial photo of 19NC (Double S Airport)
Taken in the Fall of 2015
looking south.

Do you have a better or more recent aerial photo of Double S Airport that you would like to share? If so, please send us your photo.

 
Sectional chart

 
Airport distance calculator
Flying to Double S Airport? Find the distance to fly.

From to 19NC

Sunrise and sunset
Times for 28-Nov-2022
 Local
(UTC-5)
 Zulu
(UTC)
Morning civil twilight06:3411:34
Sunrise07:0212:02
Sunset16:5721:57
Evening civil twilight17:2522:25

Current date and time
Zulu (UTC)  28-Nov-2022 08:17:49
Local (UTC-5)  28-Nov-2022 03:17:49
 
METAR
KRWI 
13nm S 
280753Z AUTO 24006KT 10SM CLR 14/07 A2972 RMK AO2 SLP064 T01440072 $
KETC 
20nm SE 
280755Z AUTO 25005KT 10SM CLR 15/08 A2971 RMK AO2 T01490080
KLHZ 
20nm W 
280755Z AUTO 24006KT 10SM CLR 12/07 A2973 RMK AO2
KIXA 
21nm NE 
280755Z AUTO 23008KT 10SM CLR 11/10 A2969 RMK AO2
TAF
KRWI 
13nm S 
280523Z 2806/2906 25008KT P6SM SCT030 FM281400 27010KT P6SM BKN050 FM282000 30006KT P6SM SKC
NOTAMs
Click for the latest NOTAMs
NOTAMs are issued by the DoD/FAA and will open in a separate window not controlled by AirNav.

 

 
 

Would you like to see your business listed on this page?

 If your business provides an interesting product or service to pilots, flight crews, aircraft, or users of the Double S Airport, you should consider listing it here.  To start the listing process, click on the button below
 
Add a business
 

Other Pages about Double S Airport

Update a link
 
Copyright © AirNav, LLC. All rights reserved. Privacy Policy  Contact